createdAt,value
2017-01-16T00:00:14.508Z,0
2017-01-16T00:01:23.205Z,0
2017-01-16T00:02:31.920Z,0
2017-01-16T00:03:41.400Z,0
2017-01-16T00:04:50.977Z,0
2017-01-16T00:06:00.076Z,0
2017-01-16T00:07:09.144Z,0
2017-01-16T00:08:18.612Z,0
2017-01-16T00:09:28.074Z,0
2017-01-16T00:10:37.522Z,0
2017-01-16T00:11:46.245Z,0
2017-01-16T00:12:54.949Z,0
2017-01-16T00:14:04.014Z,0
2017-01-16T00:15:12.705Z,0
2017-01-16T00:16:22.164Z,0
2017-01-16T00:17:31.228Z,0
2017-01-16T00:18:40.693Z,0
2017-01-16T00:19:49.782Z,0
2017-01-16T00:20:59.416Z,0
2017-01-16T00:22:09.182Z,0
2017-01-16T00:23:18.299Z,0
2017-01-16T00:24:27.765Z,0
2017-01-16T00:25:37.242Z,0
2017-01-16T00:26:45.971Z,0
2017-01-16T00:27:55.388Z,0
2017-01-16T00:29:04.861Z,0
2017-01-16T00:30:14.345Z,0
2017-01-16T00:31:23.410Z,0
2017-01-16T00:32:32.870Z,0
2017-01-16T00:33:43.072Z,0
2017-01-16T00:34:52.143Z,0
2017-01-16T00:36:01.600Z,0
2017-01-16T00:37:11.106Z,0
2017-01-16T00:38:19.829Z,0
2017-01-16T00:39:28.909Z,0
2017-01-16T00:40:38.008Z,0
2017-01-16T00:41:46.692Z,0
2017-01-16T00:42:56.566Z,0
2017-01-16T00:44:05.648Z,0
2017-01-16T00:45:14.739Z,0
2017-01-16T00:46:24.625Z,0
2017-01-16T00:47:34.474Z,0
2017-01-16T00:48:43.181Z,0
2017-01-16T00:49:53.044Z,0
2017-01-16T00:51:02.164Z,0
2017-01-16T00:52:11.254Z,0
2017-01-16T00:53:20.357Z,0
2017-01-16T00:54:30.241Z,0
2017-01-16T00:55:38.948Z,0
2017-01-16T00:56:48.019Z,0
2017-01-16T00:57:56.710Z,0
2017-01-16T00:59:05.792Z,0
2017-01-16T01:00:14.884Z,0
2017-01-16T01:01:24.631Z,0
2017-01-16T01:02:33.723Z,0
2017-01-16T01:03:43.217Z,0
2017-01-16T01:04:51.910Z,0
2017-01-16T01:06:00.629Z,0
2017-01-16T01:07:09.719Z,0
2017-01-16T01:08:18.956Z,0
2017-01-16T01:09:28.092Z,0
2017-01-16T01:10:37.187Z,0
2017-01-16T01:11:46.298Z,0
2017-01-16T01:12:55.072Z,0
2017-01-16T01:14:03.923Z,0
2017-01-16T01:15:13.004Z,0
2017-01-16T01:16:22.096Z,0
2017-01-16T01:17:31.551Z,0
2017-01-16T01:18:40.629Z,0
2017-01-16T01:19:50.227Z,0
2017-01-16T01:20:59.293Z,0
2017-01-16T01:22:08.443Z,0
2017-01-16T01:23:17.525Z,0
2017-01-16T01:24:26.244Z,0
2017-01-16T01:25:35.645Z,0
2017-01-16T01:26:45.534Z,0
2017-01-16T01:27:54.626Z,0
2017-01-16T01:29:04.115Z,0
2017-01-16T01:30:13.219Z,0
2017-01-16T01:31:22.582Z,0
2017-01-16T01:32:32.063Z,0
2017-01-16T01:33:41.528Z,0
2017-01-16T01:34:51.385Z,0
2017-01-16T01:36:01.256Z,0
2017-01-16T01:37:10.301Z,0
2017-01-16T01:38:19.761Z,0
2017-01-16T01:39:28.891Z,0
2017-01-16T01:40:37.985Z,0
2017-01-16T01:41:47.093Z,0
2017-01-16T01:42:56.514Z,0
2017-01-16T01:44:05.622Z,0
2017-01-16T01:45:14.347Z,0
2017-01-16T01:46:23.434Z,0
2017-01-16T01:47:32.526Z,0
2017-01-16T01:48:42.005Z,0
2017-01-16T01:49:50.695Z,0
2017-01-16T01:50:59.796Z,0
2017-01-16T01:52:09.296Z,0
2017-01-16T01:53:18.359Z,0
2017-01-16T01:54:27.215Z,0
2017-01-16T01:55:36.309Z,0
2017-01-16T01:56:45.104Z,0
2017-01-16T01:57:54.608Z,0
2017-01-16T01:59:04.086Z,0
2017-01-16T02:00:13.143Z,0
2017-01-16T02:01:22.221Z,0
2017-01-16T02:02:31.729Z,0
2017-01-16T02:03:40.872Z,0
2017-01-16T02:04:49.560Z,0
2017-01-16T02:05:59.391Z,0
2017-01-16T02:07:08.859Z,0
2017-01-16T02:08:17.580Z,0
2017-01-16T02:09:26.654Z,0
2017-01-16T02:10:35.389Z,0
2017-01-16T02:11:44.753Z,0
2017-01-16T02:12:54.230Z,0
2017-01-16T02:14:02.939Z,0
2017-01-16T02:15:11.621Z,0
2017-01-16T02:16:21.485Z,0
2017-01-16T02:17:30.515Z,0
2017-01-16T02:18:39.666Z,0
2017-01-16T02:19:49.932Z,0
2017-01-16T02:20:59.060Z,0
2017-01-16T02:22:07.741Z,0
2017-01-16T02:23:16.599Z,0
2017-01-16T02:24:25.304Z,0
2017-01-16T02:25:34.403Z,0
2017-01-16T02:26:43.470Z,0
2017-01-16T02:27:52.207Z,0
2017-01-16T02:29:01.082Z,0
2017-01-16T02:30:10.561Z,0
2017-01-16T02:31:19.639Z,0
2017-01-16T02:32:29.102Z,0
2017-01-16T02:33:38.180Z,0
2017-01-16T02:34:47.190Z,0
2017-01-16T02:35:56.574Z,0
2017-01-16T02:37:05.304Z,0
2017-01-16T02:38:14.790Z,0
2017-01-16T02:39:23.860Z,0
2017-01-16T02:40:32.853Z,0
2017-01-16T02:41:41.945Z,0
2017-01-16T02:42:50.619Z,0
2017-01-16T02:44:00.100Z,0
2017-01-16T02:45:09.179Z,0
2017-01-16T02:46:18.963Z,0
2017-01-16T02:47:28.056Z,0
2017-01-16T02:48:37.508Z,0
2017-01-16T02:49:47.019Z,0
2017-01-16T02:50:56.119Z,0
2017-01-16T02:52:05.853Z,0
2017-01-16T02:53:15.305Z,0
2017-01-16T02:54:24.253Z,0
2017-01-16T02:55:33.739Z,0
2017-01-16T02:56:42.833Z,0
2017-01-16T02:57:52.270Z,0
2017-01-16T02:59:02.142Z,0
2017-01-16T03:00:12.009Z,0
2017-01-16T03:01:21.540Z,0
2017-01-16T03:02:30.247Z,0
2017-01-16T03:03:39.324Z,0
2017-01-16T03:04:48.413Z,0
2017-01-16T03:05:57.128Z,0
2017-01-16T03:07:06.240Z,0
2017-01-16T03:08:15.345Z,0
2017-01-16T03:09:25.189Z,0
2017-01-16T03:10:34.275Z,0
2017-01-16T03:11:42.999Z,0
2017-01-16T03:12:52.082Z,0
2017-01-16T03:14:01.169Z,0
2017-01-16T03:15:10.205Z,0
2017-01-16T03:16:19.297Z,0
2017-01-16T03:17:28.408Z,0
2017-01-16T03:18:37.145Z,0
2017-01-16T03:19:46.225Z,0
2017-01-16T03:20:55.308Z,0
2017-01-16T03:22:04.404Z,0
2017-01-16T03:23:13.124Z,0
2017-01-16T03:24:22.612Z,0
2017-01-16T03:25:32.096Z,0
2017-01-16T03:26:41.947Z,0
2017-01-16T03:27:51.086Z,0
2017-01-16T03:29:00.149Z,0
2017-01-16T03:30:09.630Z,0
2017-01-16T03:31:19.114Z,0
2017-01-16T03:32:28.201Z,0
2017-01-16T03:33:37.670Z,0
2017-01-16T03:34:46.736Z,0
2017-01-16T03:35:55.409Z,0
2017-01-16T03:37:04.498Z,0
2017-01-16T03:38:13.895Z,0
2017-01-16T03:39:23.405Z,0
2017-01-16T03:40:32.476Z,0
2017-01-16T03:41:41.569Z,0
2017-01-16T03:42:51.098Z,0
2017-01-16T03:44:00.167Z,0
2017-01-16T03:45:09.246Z,0
2017-01-16T03:46:18.311Z,0
2017-01-16T03:47:27.035Z,0
2017-01-16T03:48:36.502Z,0
2017-01-16T03:49:45.389Z,0
2017-01-16T03:50:54.117Z,0
2017-01-16T03:52:03.193Z,0
2017-01-16T03:53:11.880Z,0
2017-01-16T03:54:20.588Z,0
2017-01-16T03:55:30.012Z,0
2017-01-16T03:56:39.927Z,0
2017-01-16T03:57:49.414Z,0
2017-01-16T03:58:58.499Z,0
2017-01-16T04:00:08.375Z,0
2017-01-16T04:01:17.622Z,0
2017-01-16T04:02:26.694Z,0
2017-01-16T04:03:35.880Z,0
2017-01-16T04:04:44.569Z,0
2017-01-16T04:05:54.034Z,0
2017-01-16T04:07:03.300Z,0
2017-01-16T04:08:12.423Z,0
2017-01-16T04:09:21.547Z,0
2017-01-16T04:10:30.276Z,0
2017-01-16T04:11:39.759Z,0
2017-01-16T04:12:48.801Z,0
2017-01-16T04:13:57.893Z,0
2017-01-16T04:15:06.574Z,0
2017-01-16T04:16:15.644Z,0
2017-01-16T04:17:24.730Z,0
2017-01-16T04:18:33.921Z,0
2017-01-16T04:19:43.405Z,0
2017-01-16T04:20:52.466Z,0
2017-01-16T04:22:01.539Z,0
2017-01-16T04:23:11.031Z,0
2017-01-16T04:24:20.486Z,0
2017-01-16T04:25:29.222Z,0
2017-01-16T04:26:38.684Z,0
2017-01-16T04:27:47.801Z,0
2017-01-16T04:28:56.496Z,0
2017-01-16T04:30:05.731Z,0
2017-01-16T04:31:14.415Z,0
2017-01-16T04:32:23.872Z,0
2017-01-16T04:33:33.361Z,0
2017-01-16T04:34:42.859Z,0
2017-01-16T04:35:52.627Z,0
2017-01-16T04:37:01.349Z,0
2017-01-16T04:38:10.044Z,0
2017-01-16T04:39:19.146Z,0
2017-01-16T04:40:28.232Z,0
2017-01-16T04:41:37.023Z,0
2017-01-16T04:42:46.145Z,0
2017-01-16T04:43:55.223Z,0
2017-01-16T04:45:04.680Z,0
2017-01-16T04:46:13.406Z,0
2017-01-16T04:47:23.212Z,0
2017-01-16T04:48:31.902Z,0
2017-01-16T04:49:40.981Z,0
2017-01-16T04:50:50.094Z,0
2017-01-16T04:51:59.155Z,0
2017-01-16T04:53:09.196Z,0
2017-01-16T04:54:17.873Z,0
2017-01-16T04:55:26.571Z,0
2017-01-16T04:56:36.056Z,0
2017-01-16T04:57:44.740Z,0
2017-01-16T04:58:54.142Z,0
2017-01-16T05:00:03.222Z,0
2017-01-16T05:01:11.896Z,0
2017-01-16T05:02:20.589Z,0
2017-01-16T05:03:29.700Z,0
2017-01-16T05:04:39.490Z,0
2017-01-16T05:05:48.562Z,0
2017-01-16T05:06:57.660Z,0
2017-01-16T05:08:06.735Z,0
2017-01-16T05:09:15.474Z,0
2017-01-16T05:10:24.324Z,0
2017-01-16T05:11:33.457Z,0
2017-01-16T05:12:42.543Z,0
2017-01-16T05:13:51.615Z,0
2017-01-16T05:15:00.684Z,0
2017-01-16T05:16:09.393Z,0
2017-01-16T05:17:18.889Z,0
2017-01-16T05:18:27.632Z,0
2017-01-16T05:19:36.319Z,0
2017-01-16T05:20:45.385Z,0
2017-01-16T05:21:54.089Z,0
2017-01-16T05:23:03.199Z,0
2017-01-16T05:24:11.924Z,0
2017-01-16T05:25:21.385Z,0
2017-01-16T05:26:30.853Z,0
2017-01-16T05:27:39.905Z,0
2017-01-16T05:28:49.385Z,0
2017-01-16T05:29:58.859Z,0
2017-01-16T05:31:07.961Z,0
2017-01-16T05:32:17.075Z,0
2017-01-16T05:33:25.766Z,0
2017-01-16T05:34:34.860Z,0
2017-01-16T05:35:44.337Z,0
2017-01-16T05:36:53.399Z,0
2017-01-16T05:38:02.465Z,0
2017-01-16T05:39:11.527Z,0
2017-01-16T05:40:21.012Z,0
2017-01-16T05:41:30.474Z,0
2017-01-16T05:42:39.545Z,0
2017-01-16T05:43:49.008Z,0
2017-01-16T05:44:58.387Z,0
2017-01-16T05:46:08.250Z,0
2017-01-16T05:47:18.099Z,0
2017-01-16T05:48:27.554Z,0
2017-01-16T05:49:36.247Z,0
2017-01-16T05:50:45.432Z,0
2017-01-16T05:51:54.549Z,0
2017-01-16T05:53:03.272Z,0
2017-01-16T05:54:12.333Z,0
2017-01-16T05:55:21.077Z,0
2017-01-16T05:56:30.197Z,0
2017-01-16T05:57:39.326Z,0
2017-01-16T05:58:48.824Z,0
2017-01-16T05:59:57.912Z,0
2017-01-16T06:01:07.083Z,0
2017-01-16T06:02:16.972Z,0
2017-01-16T06:03:26.432Z,0
2017-01-16T06:04:35.913Z,0
2017-01-16T06:05:45.052Z,0
2017-01-16T06:06:54.541Z,4
2017-01-16T06:08:04.011Z,4
2017-01-16T06:09:14.289Z,4
2017-01-16T06:10:23.360Z,4
2017-01-16T06:11:32.458Z,4
2017-01-16T06:12:41.373Z,4
2017-01-16T06:13:50.259Z,4
2017-01-16T06:14:59.723Z,4
2017-01-16T06:16:08.807Z,4
2017-01-16T06:17:18.351Z,4
2017-01-16T06:18:27.550Z,4
2017-01-16T06:19:36.575Z,4
2017-01-16T06:20:46.055Z,4
2017-01-16T06:21:55.218Z,4
2017-01-16T06:23:03.916Z,4
2017-01-16T06:24:13.027Z,4
2017-01-16T06:25:22.449Z,4
2017-01-16T06:26:31.171Z,4
2017-01-16T06:27:39.874Z,4
2017-01-16T06:28:49.011Z,4
2017-01-16T06:29:57.712Z,4
2017-01-16T06:31:07.349Z,4
2017-01-16T06:32:16.853Z,4
2017-01-16T06:33:25.953Z,4
2017-01-16T06:34:35.074Z,4
2017-01-16T06:35:44.850Z,4
2017-01-16T06:36:54.311Z,4
2017-01-16T06:38:03.773Z,4
2017-01-16T06:39:13.242Z,4
2017-01-16T06:40:22.355Z,4
2017-01-16T06:41:31.462Z,4
2017-01-16T06:42:40.882Z,4
2017-01-16T06:43:51.215Z,4
2017-01-16T06:45:01.182Z,4
2017-01-16T06:46:10.671Z,8
2017-01-16T06:47:20.139Z,4
2017-01-16T06:48:29.608Z,4
2017-01-16T06:49:38.706Z,4
2017-01-16T06:50:47.798Z,4
2017-01-16T06:51:56.869Z,4
2017-01-16T06:53:05.990Z,4
2017-01-16T06:54:14.764Z,4
2017-01-16T06:55:23.527Z,4
2017-01-16T06:56:32.611Z,4
2017-01-16T06:57:41.704Z,4
2017-01-16T06:58:50.777Z,4
2017-01-16T07:00:00.611Z,4
2017-01-16T07:01:09.333Z,0
2017-01-16T07:02:18.417Z,4
2017-01-16T07:03:27.490Z,4
2017-01-16T07:04:36.230Z,4
2017-01-16T07:05:46.334Z,4
2017-01-16T07:06:56.201Z,4
2017-01-16T07:08:05.314Z,4
2017-01-16T07:09:15.176Z,4
2017-01-16T07:10:23.862Z,0
2017-01-16T07:11:33.284Z,4
2017-01-16T07:12:41.964Z,4
2017-01-16T07:13:51.427Z,4
2017-01-16T07:15:00.920Z,4
2017-01-16T07:16:10.377Z,8
2017-01-16T07:17:19.852Z,8
2017-01-16T07:18:28.562Z,8
2017-01-16T07:19:38.419Z,8
2017-01-16T07:20:47.105Z,8
2017-01-16T07:21:56.209Z,12
2017-01-16T07:23:05.771Z,16
2017-01-16T07:24:14.473Z,12
2017-01-16T07:25:23.557Z,16
2017-01-16T07:26:32.658Z,12
2017-01-16T07:27:41.764Z,16
2017-01-16T07:28:50.541Z,12
2017-01-16T07:30:00.020Z,20
2017-01-16T07:31:09.143Z,24
2017-01-16T07:32:18.438Z,32
2017-01-16T07:33:27.667Z,36
2017-01-16T07:34:36.449Z,40
2017-01-16T07:35:45.917Z,44
2017-01-16T07:36:55.769Z,48
2017-01-16T07:38:05.649Z,52
2017-01-16T07:39:14.812Z,60
2017-01-16T07:40:23.656Z,72
2017-01-16T07:41:32.757Z,72
2017-01-16T07:42:41.523Z,76
2017-01-16T07:43:50.258Z,84
2017-01-16T07:44:59.890Z,84
2017-01-16T07:46:09.067Z,88
2017-01-16T07:47:18.601Z,96
2017-01-16T07:48:27.318Z,104
2017-01-16T07:49:36.402Z,104
2017-01-16T07:50:45.926Z,100
2017-01-16T07:51:55.054Z,100
2017-01-16T07:53:04.223Z,100
2017-01-16T07:54:12.910Z,96
2017-01-16T07:55:22.789Z,96
2017-01-16T07:56:31.496Z,92
2017-01-16T07:57:40.938Z,88
2017-01-16T07:58:50.061Z,92
2017-01-16T07:59:59.577Z,96
2017-01-16T08:01:09.086Z,104
2017-01-16T08:02:18.622Z,116
2017-01-16T08:03:27.310Z,116
2017-01-16T08:04:36.445Z,112
2017-01-16T08:05:45.159Z,104
2017-01-16T08:06:54.289Z,96
2017-01-16T08:08:03.024Z,100
2017-01-16T08:09:12.112Z,120
2017-01-16T08:10:21.267Z,124
2017-01-16T08:11:30.398Z,128
2017-01-16T08:12:39.509Z,128
2017-01-16T08:13:49.390Z,140
2017-01-16T08:14:58.938Z,160
2017-01-16T08:16:09.302Z,192
2017-01-16T08:17:18.774Z,220
2017-01-16T08:18:27.866Z,240
2017-01-16T08:19:36.577Z,256
2017-01-16T08:20:45.426Z,296
2017-01-16T08:21:54.129Z,328
2017-01-16T08:23:03.272Z,352
2017-01-16T08:24:12.740Z,380
2017-01-16T08:25:21.838Z,400
2017-01-16T08:26:31.242Z,416
2017-01-16T08:27:40.314Z,424
2017-01-16T08:28:49.381Z,464
2017-01-16T08:29:58.121Z,524
2017-01-16T08:31:07.292Z,500
2017-01-16T08:32:16.012Z,528
2017-01-16T08:33:25.167Z,532
2017-01-16T08:34:33.855Z,512
2017-01-16T08:35:42.985Z,464
2017-01-16T08:36:52.852Z,436
2017-01-16T08:38:01.938Z,448
2017-01-16T08:39:11.108Z,464
2017-01-16T08:40:20.577Z,472
2017-01-16T08:41:29.671Z,468
2017-01-16T08:42:38.792Z,476
2017-01-16T08:43:47.494Z,500
2017-01-16T08:44:56.236Z,480
2017-01-16T08:46:05.429Z,460
2017-01-16T08:47:14.636Z,468
2017-01-16T08:48:23.697Z,484
2017-01-16T08:49:33.272Z,492
2017-01-16T08:50:42.815Z,480
2017-01-16T08:51:51.941Z,480
2017-01-16T08:53:01.484Z,484
2017-01-16T08:54:10.972Z,492
2017-01-16T08:55:20.237Z,504
2017-01-16T08:56:29.373Z,508
2017-01-16T08:57:38.460Z,500
2017-01-16T08:58:47.239Z,492
2017-01-16T08:59:55.934Z,488
2017-01-16T09:01:05.565Z,488
2017-01-16T09:02:14.666Z,492
2017-01-16T09:03:23.747Z,504
2017-01-16T09:04:32.443Z,520
2017-01-16T09:05:41.914Z,532
2017-01-16T09:06:50.968Z,544
2017-01-16T09:08:00.457Z,536
2017-01-16T09:09:09.541Z,528
2017-01-16T09:10:18.610Z,528
2017-01-16T09:11:27.684Z,524
2017-01-16T09:12:37.846Z,548
2017-01-16T09:13:46.557Z,568
2017-01-16T09:14:56.051Z,560
2017-01-16T09:16:05.119Z,580
2017-01-16T09:17:14.190Z,608
2017-01-16T09:18:23.343Z,640
2017-01-16T09:19:32.036Z,628
2017-01-16T09:20:41.151Z,584
2017-01-16T09:21:50.678Z,568
2017-01-16T09:22:59.399Z,536
2017-01-16T09:24:08.481Z,512
2017-01-16T09:25:17.169Z,536
2017-01-16T09:26:26.629Z,564
2017-01-16T09:27:35.740Z,556
2017-01-16T09:28:44.831Z,548
2017-01-16T09:29:53.516Z,540
2017-01-16T09:31:03.382Z,564
2017-01-16T09:32:12.116Z,584
2017-01-16T09:33:21.215Z,604
2017-01-16T09:34:29.943Z,608
2017-01-16T09:35:39.413Z,584
2017-01-16T09:36:48.532Z,552
2017-01-16T09:37:57.238Z,552
2017-01-16T09:39:05.917Z,544
2017-01-16T09:40:16.182Z,504
2017-01-16T09:41:25.752Z,516
2017-01-16T09:42:35.237Z,512
2017-01-16T09:43:44.381Z,552
2017-01-16T09:44:53.451Z,572
2017-01-16T09:46:02.140Z,592
2017-01-16T09:47:11.289Z,568
2017-01-16T09:48:20.763Z,568
2017-01-16T09:49:29.884Z,592
2017-01-16T09:50:38.670Z,668
2017-01-16T09:51:48.158Z,756
2017-01-16T09:52:57.381Z,748
2017-01-16T09:54:06.465Z,712
2017-01-16T09:55:15.551Z,704
2017-01-16T09:56:24.277Z,728
2017-01-16T09:57:33.394Z,736
2017-01-16T09:58:42.967Z,716
2017-01-16T09:59:51.649Z,748
2017-01-16T10:01:00.739Z,776
2017-01-16T10:02:10.985Z,820
2017-01-16T10:03:20.140Z,872
2017-01-16T10:04:29.005Z,812
2017-01-16T10:05:38.086Z,848
2017-01-16T10:06:47.198Z,940
2017-01-16T10:07:56.304Z,1020
2017-01-16T10:09:04.985Z,1144
2017-01-16T10:10:14.480Z,1036
2017-01-16T10:11:23.210Z,844
2017-01-16T10:12:32.297Z,836
2017-01-16T10:13:41.811Z,964
2017-01-16T10:14:50.532Z,924
2017-01-16T10:16:00.143Z,884
2017-01-16T10:17:09.650Z,724
2017-01-16T10:18:18.398Z,672
2017-01-16T10:19:27.489Z,696
2017-01-16T10:20:36.624Z,696
2017-01-16T10:21:46.666Z,720
2017-01-16T10:22:55.380Z,760
2017-01-16T10:24:04.904Z,804
2017-01-16T10:25:13.587Z,824
2017-01-16T10:26:23.148Z,880
2017-01-16T10:27:31.864Z,996
2017-01-16T10:28:41.767Z,1020
2017-01-16T10:29:50.856Z,1044
2017-01-16T10:31:00.346Z,1084
2017-01-16T10:32:09.816Z,1104
2017-01-16T10:33:19.987Z,1120
2017-01-16T10:34:29.104Z,1076
2017-01-16T10:35:37.790Z,1064
2017-01-16T10:36:46.507Z,1040
2017-01-16T10:37:55.993Z,1024
2017-01-16T10:39:05.848Z,1020
2017-01-16T10:40:14.955Z,992
2017-01-16T10:41:24.452Z,936
2017-01-16T10:42:33.159Z,900
2017-01-16T10:43:42.641Z,856
2017-01-16T10:44:51.837Z,836
2017-01-16T10:46:01.009Z,824
2017-01-16T10:47:10.874Z,792
2017-01-16T10:48:19.986Z,776
2017-01-16T10:49:28.714Z,756
2017-01-16T10:50:38.361Z,740
2017-01-16T10:51:47.491Z,724
2017-01-16T10:52:56.291Z,724
2017-01-16T10:54:05.756Z,720
2017-01-16T10:55:14.476Z,720
2017-01-16T10:56:23.994Z,720
2017-01-16T10:57:32.738Z,716
2017-01-16T10:58:41.466Z,736
2017-01-16T10:59:50.949Z,760
2017-01-16T11:01:00.430Z,756
2017-01-16T11:02:09.461Z,748
2017-01-16T11:03:18.583Z,736
2017-01-16T11:04:28.053Z,708
2017-01-16T11:05:36.764Z,688
2017-01-16T11:06:45.849Z,680
2017-01-16T11:07:54.691Z,684
2017-01-16T11:09:03.768Z,680
2017-01-16T11:10:12.942Z,712
2017-01-16T11:11:22.075Z,764
2017-01-16T11:12:31.185Z,812
2017-01-16T11:13:40.587Z,808
2017-01-16T11:14:49.654Z,756
2017-01-16T11:15:59.141Z,748
2017-01-16T11:17:08.625Z,776
2017-01-16T11:18:17.695Z,756
2017-01-16T11:19:26.430Z,744
2017-01-16T11:20:35.121Z,716
2017-01-16T11:21:43.833Z,648
2017-01-16T11:22:52.940Z,624
2017-01-16T11:24:01.672Z,604
2017-01-16T11:25:10.497Z,596
2017-01-16T11:26:19.191Z,596
2017-01-16T11:27:27.889Z,596
2017-01-16T11:28:37.084Z,596
2017-01-16T11:29:45.796Z,600
2017-01-16T11:30:54.920Z,620
2017-01-16T11:32:04.000Z,616
2017-01-16T11:33:13.077Z,620
2017-01-16T11:34:22.207Z,624
2017-01-16T11:35:31.348Z,604
2017-01-16T11:36:40.388Z,600
2017-01-16T11:37:49.500Z,580
2017-01-16T11:38:58.969Z,580
2017-01-16T11:40:08.442Z,584
2017-01-16T11:41:17.519Z,596
2017-01-16T11:42:26.305Z,620
2017-01-16T11:43:35.787Z,628
2017-01-16T11:44:44.916Z,620
2017-01-16T11:45:53.627Z,608
2017-01-16T11:47:02.743Z,596
2017-01-16T11:48:12.576Z,584
2017-01-16T11:49:21.306Z,568
2017-01-16T11:50:30.781Z,580
2017-01-16T11:51:39.874Z,576
2017-01-16T11:52:48.999Z,572
2017-01-16T11:53:57.775Z,568
2017-01-16T11:55:06.500Z,576
2017-01-16T11:56:15.615Z,556
2017-01-16T11:57:25.086Z,564
2017-01-16T11:58:33.786Z,568
2017-01-16T11:59:42.861Z,556
2017-01-16T12:00:52.373Z,548
2017-01-16T12:02:02.647Z,540
2017-01-16T12:03:11.721Z,540
2017-01-16T12:04:21.192Z,540
2017-01-16T12:05:30.671Z,536
2017-01-16T12:06:40.557Z,536
2017-01-16T12:07:49.630Z,528
2017-01-16T12:08:58.341Z,532
2017-01-16T12:10:07.420Z,532
2017-01-16T12:11:16.496Z,540
2017-01-16T12:12:25.583Z,540
2017-01-16T12:13:34.303Z,540
2017-01-16T12:14:42.994Z,540
2017-01-16T12:15:52.518Z,540
2017-01-16T12:17:01.328Z,532
2017-01-16T12:18:10.808Z,528
2017-01-16T12:19:19.921Z,532
2017-01-16T12:20:28.624Z,540
2017-01-16T12:21:37.324Z,556
2017-01-16T12:22:46.507Z,576
2017-01-16T12:23:55.584Z,576
2017-01-16T12:25:05.092Z,584
2017-01-16T12:26:13.802Z,592
2017-01-16T12:27:23.332Z,604
2017-01-16T12:28:32.418Z,608
2017-01-16T12:29:41.507Z,620
2017-01-16T12:30:50.600Z,632
2017-01-16T12:32:00.092Z,660
2017-01-16T12:33:09.207Z,672
2017-01-16T12:34:18.638Z,728
2017-01-16T12:35:28.893Z,744
2017-01-16T12:36:37.603Z,752
2017-01-16T12:37:46.674Z,768
2017-01-16T12:38:56.156Z,776
2017-01-16T12:40:05.250Z,780
2017-01-16T12:41:14.752Z,784
2017-01-16T12:42:23.861Z,784
2017-01-16T12:43:32.555Z,792
2017-01-16T12:44:41.304Z,788
2017-01-16T12:45:50.736Z,804
2017-01-16T12:47:00.222Z,824
2017-01-16T12:48:09.333Z,836
2017-01-16T12:49:18.011Z,836
2017-01-16T12:50:27.499Z,820
2017-01-16T12:51:36.891Z,804
2017-01-16T12:52:45.961Z,804
2017-01-16T12:53:55.422Z,808
2017-01-16T12:55:04.907Z,816
2017-01-16T12:56:14.019Z,808
2017-01-16T12:57:22.896Z,792
2017-01-16T12:58:33.148Z,768
2017-01-16T12:59:42.231Z,732
2017-01-16T13:00:51.374Z,700
2017-01-16T13:02:00.450Z,668
2017-01-16T13:03:09.834Z,632
2017-01-16T13:04:18.549Z,624
2017-01-16T13:05:28.015Z,616
2017-01-16T13:06:37.120Z,608
2017-01-16T13:07:46.608Z,580
2017-01-16T13:08:56.450Z,560
2017-01-16T13:10:05.519Z,576
2017-01-16T13:11:14.616Z,572
2017-01-16T13:12:23.394Z,556
2017-01-16T13:13:32.082Z,532
2017-01-16T13:14:42.059Z,492
2017-01-16T13:15:51.149Z,472
2017-01-16T13:17:00.266Z,464
2017-01-16T13:18:08.964Z,452
2017-01-16T13:19:18.052Z,448
2017-01-16T13:20:27.488Z,440
2017-01-16T13:21:36.621Z,440
2017-01-16T13:22:45.702Z,444
2017-01-16T13:23:55.241Z,444
2017-01-16T13:25:04.410Z,448
2017-01-16T13:26:13.596Z,448
2017-01-16T13:27:22.311Z,448
2017-01-16T13:28:31.394Z,456
2017-01-16T13:29:40.889Z,468
2017-01-16T13:30:49.954Z,476
2017-01-16T13:31:59.065Z,500
2017-01-16T13:33:08.176Z,524
2017-01-16T13:34:17.276Z,552
2017-01-16T13:35:26.806Z,564
2017-01-16T13:36:35.905Z,548
2017-01-16T13:37:44.943Z,512
2017-01-16T13:38:53.678Z,488
2017-01-16T13:40:02.781Z,468
2017-01-16T13:41:12.252Z,460
2017-01-16T13:42:21.329Z,460
2017-01-16T13:43:30.117Z,464
2017-01-16T13:44:38.838Z,480
2017-01-16T13:45:47.544Z,512
2017-01-16T13:46:56.242Z,524
2017-01-16T13:48:05.329Z,544
2017-01-16T13:49:14.774Z,556
2017-01-16T13:50:23.873Z,520
2017-01-16T13:51:32.572Z,508
2017-01-16T13:52:41.691Z,532
2017-01-16T13:53:51.546Z,560
2017-01-16T13:55:00.975Z,544
2017-01-16T13:56:09.696Z,524
2017-01-16T13:57:18.768Z,520
2017-01-16T13:58:27.935Z,524
2017-01-16T13:59:37.045Z,524
2017-01-16T14:00:47.029Z,540
2017-01-16T14:01:55.761Z,532
2017-01-16T14:03:04.490Z,496
2017-01-16T14:04:13.977Z,468
2017-01-16T14:05:23.098Z,456
2017-01-16T14:06:31.822Z,452
2017-01-16T14:07:40.931Z,440
2017-01-16T14:08:50.008Z,432
2017-01-16T14:09:59.477Z,428
2017-01-16T14:11:08.559Z,420
2017-01-16T14:12:18.047Z,420
2017-01-16T14:13:27.523Z,416
2017-01-16T14:14:36.274Z,420
2017-01-16T14:15:45.023Z,416
2017-01-16T14:16:54.541Z,420
2017-01-16T14:18:03.770Z,412
2017-01-16T14:19:12.482Z,416
2017-01-16T14:20:21.184Z,416
2017-01-16T14:21:30.336Z,412
2017-01-16T14:22:40.230Z,412
2017-01-16T14:23:49.443Z,416
2017-01-16T14:24:58.536Z,416
2017-01-16T14:26:07.617Z,416
2017-01-16T14:27:16.329Z,412
2017-01-16T14:28:25.842Z,408
2017-01-16T14:29:35.276Z,408
2017-01-16T14:30:44.761Z,404
2017-01-16T14:31:53.864Z,396
2017-01-16T14:33:03.760Z,392
2017-01-16T14:34:12.506Z,384
2017-01-16T14:35:22.324Z,380
2017-01-16T14:36:32.181Z,372
2017-01-16T14:37:41.357Z,368
2017-01-16T14:38:50.514Z,368
2017-01-16T14:39:59.627Z,364
2017-01-16T14:41:09.014Z,364
2017-01-16T14:42:18.888Z,360
2017-01-16T14:43:28.371Z,352
2017-01-16T14:44:37.073Z,348
2017-01-16T14:45:46.560Z,344
2017-01-16T14:46:55.293Z,340
2017-01-16T14:48:04.804Z,336
2017-01-16T14:49:13.523Z,332
2017-01-16T14:50:22.267Z,328
2017-01-16T14:51:31.759Z,324
2017-01-16T14:52:40.905Z,324
2017-01-16T14:53:49.620Z,320
2017-01-16T14:54:59.129Z,316
2017-01-16T14:56:07.836Z,316
2017-01-16T14:57:16.552Z,312
2017-01-16T14:58:26.214Z,304
2017-01-16T14:59:34.935Z,300
2017-01-16T15:00:44.049Z,296
2017-01-16T15:01:53.158Z,288
2017-01-16T15:03:01.921Z,288
2017-01-16T15:04:11.414Z,284
2017-01-16T15:05:20.118Z,280
2017-01-16T15:06:28.814Z,272
2017-01-16T15:07:37.552Z,268
2017-01-16T15:08:47.033Z,268
2017-01-16T15:09:56.511Z,260
2017-01-16T15:11:05.626Z,256
2017-01-16T15:12:14.336Z,252
2017-01-16T15:13:23.446Z,248
2017-01-16T15:14:32.916Z,240
2017-01-16T15:15:41.741Z,236
2017-01-16T15:16:50.466Z,232
2017-01-16T15:17:59.572Z,228
2017-01-16T15:19:09.880Z,224
2017-01-16T15:20:18.996Z,220
2017-01-16T15:21:28.310Z,212
2017-01-16T15:22:37.435Z,208
2017-01-16T15:23:47.326Z,200
2017-01-16T15:24:57.587Z,196
2017-01-16T15:26:07.459Z,192
2017-01-16T15:27:17.652Z,184
2017-01-16T15:28:26.365Z,176
2017-01-16T15:29:35.065Z,172
2017-01-16T15:30:44.949Z,168
2017-01-16T15:31:54.431Z,160
2017-01-16T15:33:03.647Z,156
2017-01-16T15:34:12.739Z,148
2017-01-16T15:35:22.224Z,144
2017-01-16T15:36:31.314Z,136
2017-01-16T15:37:40.017Z,128
2017-01-16T15:38:49.174Z,124
2017-01-16T15:39:58.665Z,120
2017-01-16T15:41:07.736Z,116
2017-01-16T15:42:16.822Z,108
2017-01-16T15:43:26.314Z,104
2017-01-16T15:44:35.812Z,96
2017-01-16T15:45:45.318Z,92
2017-01-16T15:46:54.469Z,84
2017-01-16T15:48:03.581Z,80
2017-01-16T15:49:12.326Z,72
2017-01-16T15:50:22.123Z,68
2017-01-16T15:51:31.214Z,60
2017-01-16T15:52:41.108Z,60
2017-01-16T15:53:50.245Z,52
2017-01-16T15:54:58.957Z,52
2017-01-16T15:56:08.637Z,44
2017-01-16T15:57:18.206Z,40
2017-01-16T15:58:26.936Z,36
2017-01-16T15:59:35.657Z,36
2017-01-16T16:00:45.525Z,28
2017-01-16T16:01:54.307Z,24
2017-01-16T16:03:03.794Z,20
2017-01-16T16:04:12.524Z,24
2017-01-16T16:05:21.625Z,20
2017-01-16T16:06:31.200Z,16
2017-01-16T16:07:39.902Z,16
2017-01-16T16:08:49.014Z,12
2017-01-16T16:09:58.091Z,8
2017-01-16T16:11:07.592Z,8
2017-01-16T16:12:17.072Z,8
2017-01-16T16:13:26.255Z,4
2017-01-16T16:14:34.962Z,4
2017-01-16T16:15:44.057Z,4
2017-01-16T16:16:53.145Z,4
2017-01-16T16:18:03.065Z,4
2017-01-16T16:19:12.511Z,0
2017-01-16T16:20:22.416Z,4
2017-01-16T16:21:31.502Z,4
2017-01-16T16:22:40.635Z,0
2017-01-16T16:23:50.148Z,0
2017-01-16T16:25:00.006Z,0